Time;durP1;ratioP1;P1;durP2;ratioP2;P2;SDS_P1;SDS_P2;PMS_P1;PMS_P2;Temp;Humidity;BMP_temperature;BMP_pressure;BME280_temperature;BME280_humidity;BME280_pressure;Samples;Min_cycle;Max_cycle;Signal;HPM_P1;HPM_P2
2024/01/15 00:01:21;;;;;;;29.65;20.15;;;18.60;71.80;;;;;;5010552;28;20026;-67
2024/01/15 00:03:47;;;;;;;28.58;19.80;;;18.60;71.80;;;;;;5011448;28;20116;-67
2024/01/15 00:06:12;;;;;;;24.35;18.27;;;18.60;71.90;;;;;;5010954;28;20113;-67
2024/01/15 00:08:39;;;;;;;28.17;19.23;;;18.60;71.90;;;;;;5011056;28;20022;-68
2024/01/15 00:11:04;;;;;;;26.35;18.52;;;18.60;71.90;;;;;;5004862;28;20054;-67
2024/01/15 00:13:30;;;;;;;27.80;19.85;;;18.60;71.90;;;;;;5009886;28;20053;-68
2024/01/15 00:15:56;;;;;;;23.15;17.88;;;18.60;72.00;;;;;;5005512;28;20761;-68
2024/01/15 00:18:21;;;;;;;28.65;18.02;;;18.60;71.90;;;;;;5010733;28;20022;-70
2024/01/15 00:20:47;;;;;;;23.55;18.17;;;18.60;72.00;;;;;;5010296;28;20053;-71
2024/01/15 00:23:13;;;;;;;24.13;17.45;;;18.60;72.30;;;;;;5010889;28;20022;-67
2024/01/15 00:25:38;;;;;;;23.25;18.13;;;18.60;72.20;;;;;;5010779;28;20050;-67
2024/01/15 00:28:04;;;;;;;28.55;18.10;;;18.70;72.10;;;;;;5010831;28;20660;-69
2024/01/15 00:30:30;;;;;;;25.65;18.63;;;18.70;72.00;;;;;;5010475;28;20109;-69
2024/01/15 00:32:55;;;;;;;24.75;17.73;;;18.60;72.00;;;;;;5013299;28;20121;-69
2024/01/15 00:35:21;;;;;;;23.85;16.58;;;18.60;72.00;;;;;;5014660;28;20479;-69
2024/01/15 00:37:46;;;;;;;21.88;17.23;;;18.60;72.00;;;;;;5014720;28;20030;-69
2024/01/15 00:40:12;;;;;;;24.50;17.40;;;18.60;72.00;;;;;;5013966;28;20026;-69
2024/01/15 00:42:38;;;;;;;21.33;16.73;;;18.60;72.00;;;;;;5014676;28;20018;-69
2024/01/15 00:45:05;;;;;;;22.25;16.23;;;18.60;72.00;;;;;;5014803;28;20029;-69
2024/01/15 00:47:30;;;;;;;23.40;16.33;;;18.60;72.00;;;;;;5014682;28;20022;-69
2024/01/15 00:49:56;;;;;;;23.17;16.65;;;18.60;72.00;;;;;;5013771;28;20030;-69
2024/01/15 00:52:22;;;;;;;21.75;14.88;;;18.60;72.00;;;;;;5014175;28;20026;-68
2024/01/15 00:54:47;;;;;;;23.88;16.23;;;18.60;72.10;;;;;;5014058;28;20033;-69
2024/01/15 00:57:13;;;;;;;20.13;15.20;;;18.60;72.10;;;;;;5014538;28;20033;-69
2024/01/15 00:59:39;;;;;;;19.50;14.55;;;18.50;72.10;;;;;;5013885;28;20479;-69
2024/01/15 01:02:04;;;;;;;20.42;15.00;;;18.60;72.10;;;;;;5014324;28;20451;-69
2024/01/15 01:04:30;;;;;;;19.33;14.07;;;18.60;72.10;;;;;;5013916;28;20479;-69
2024/01/15 01:06:56;;;;;;;19.05;14.52;;;18.60;72.20;;;;;;5014324;28;20050;-70
2024/01/15 01:09:21;;;;;;;19.30;14.05;;;18.60;72.20;;;;;;5013730;28;20022;-68
2024/01/15 01:11:47;;;;;;;18.50;13.75;;;18.60;72.20;;;;;;4999053;28;20030;-69
2024/01/15 01:14:13;;;;;;;16.90;12.93;;;18.50;72.20;;;;;;5013779;28;20030;-70
2024/01/15 01:16:38;;;;;;;18.05;12.75;;;18.60;72.20;;;;;;5013866;28;20021;-69
2024/01/15 01:19:06;;;;;;;16.98;12.75;;;18.60;72.30;;;;;;5014003;28;20095;-69
2024/01/15 01:21:33;;;;;;;20.33;13.98;;;18.60;72.30;;;;;;5012975;28;20022;-69
2024/01/15 01:23:58;;;;;;;20.15;13.90;;;18.60;72.20;;;;;;5013662;28;20030;-72
2024/01/15 01:26:24;;;;;;;16.00;12.68;;;18.60;72.20;;;;;;5013673;28;20364;-69
2024/01/15 01:28:50;;;;;;;18.23;13.35;;;18.60;72.10;;;;;;5013746;28;20427;-68
2024/01/15 01:31:16;;;;;;;17.08;12.25;;;18.60;72.20;;;;;;5013418;28;20022;-67
2024/01/15 01:33:42;;;;;;;15.98;12.15;;;18.60;72.60;;;;;;5013794;28;20152;-70
2024/01/15 01:36:11;;;;;;;15.60;11.32;;;18.60;72.90;;;;;;5013713;28;20049;-70
2024/01/15 01:38:37;;;;;;;17.95;12.10;;;18.60;72.60;;;;;;5013418;28;20049;-68
2024/01/15 01:41:03;;;;;;;26.98;15.25;;;18.60;72.60;;;;;;5011368;28;20026;-69
2024/01/15 01:43:29;;;;;;;24.95;14.20;;;18.60;72.20;;;;;;5013055;28;20033;-68
2024/01/15 01:45:56;;;;;;;20.33;13.75;;;18.60;72.00;;;;;;5013504;28;20022;-68
2024/01/15 01:48:24;;;;;;;18.35;12.00;;;18.60;72.00;;;;;;5013335;28;20022;-68
2024/01/15 01:50:50;;;;;;;20.23;13.70;;;18.60;72.00;;;;;;5012652;28;20076;-68
2024/01/15 01:53:16;;;;;;;17.42;13.25;;;18.60;72.00;;;;;;5013150;28;20030;-68
2024/01/15 01:55:42;;;;;;;21.15;14.05;;;18.60;72.00;;;;;;5013307;28;20129;-67
2024/01/15 01:58:08;;;;;;;20.23;13.07;;;18.60;71.90;;;;;;5013245;28;20026;-68
2024/01/15 02:00:35;;;;;;;17.55;13.57;;;18.60;72.00;;;;;;5012409;28;20415;-68
2024/01/15 02:03:03;;;;;;;19.23;12.90;;;18.60;71.90;;;;;;5012798;28;20510;-68
2024/01/15 02:05:30;;;;;;;17.85;12.57;;;18.60;71.90;;;;;;5013068;28;20554;-68
2024/01/15 02:07:56;;;;;;;15.02;12.18;;;18.60;71.90;;;;;;5013226;28;20030;-68
2024/01/15 02:10:21;;;;;;;19.23;13.20;;;18.60;71.80;;;;;;5012362;28;20406;-70
2024/01/15 02:12:48;;;;;;;17.98;12.15;;;18.60;71.80;;;;;;5006208;28;20034;-68
2024/01/15 02:15:14;;;;;;;15.52;12.25;;;18.60;72.00;;;;;;5012967;28;20033;-68
2024/01/15 02:18:00;;;;;;;17.88;11.85;;;18.60;71.80;;;;;;5012900;28;20033;-68
2024/01/15 02:20:26;;;;;;;17.80;12.48;;;18.60;71.80;;;;;;5011830;28;20104;-68
2024/01/15 02:22:51;;;;;;;17.02;12.23;;;18.60;71.80;;;;;;5012499;28;20060;-68
2024/01/15 02:25:18;;;;;;;18.25;11.55;;;18.60;71.80;;;;;;5011400;28;20022;-68
2024/01/15 02:27:44;;;;;;;19.63;12.30;;;18.60;71.70;;;;;;5004114;28;20109;-67
2024/01/15 02:30:11;;;;;;;18.17;11.55;;;18.60;71.80;;;;;;5011165;28;20050;-67
2024/01/15 02:32:37;;;;;;;15.13;10.85;;;18.60;71.70;;;;;;5011325;28;20442;-70
2024/01/15 02:35:03;;;;;;;16.67;11.40;;;18.70;71.80;;;;;;5011389;28;20038;-69
2024/01/15 02:37:29;;;;;;;15.93;11.50;;;18.60;71.80;;;;;;5013033;28;20078;-69
2024/01/15 02:39:54;;;;;;;16.52;9.95;;;18.60;71.80;;;;;;5011410;28;20029;-68
2024/01/15 02:42:20;;;;;;;14.40;10.77;;;18.60;71.80;;;;;;5014242;28;20030;-68
2024/01/15 02:44:45;;;;;;;15.07;10.77;;;18.60;71.80;;;;;;5011795;28;20466;-68
2024/01/15 02:47:11;;;;;;;13.43;10.20;;;18.60;71.70;;;;;;5011161;28;20407;-68
2024/01/15 02:49:37;;;;;;;15.98;11.07;;;18.60;71.80;;;;;;5010571;28;20048;-67
2024/01/15 02:52:03;;;;;;;14.40;10.43;;;18.60;71.70;;;;;;5010441;28;20037;-68
2024/01/15 02:54:28;;;;;;;13.10;10.20;;;18.60;71.80;;;;;;5009583;28;20030;-67
2024/01/15 02:56:54;;;;;;;12.50;9.88;;;18.60;71.90;;;;;;5009375;28;20446;-70
2024/01/15 02:59:20;;;;;;;12.23;9.23;;;18.60;71.80;;;;;;5009775;28;20546;-71
2024/01/15 03:01:45;;;;;;;11.23;9.30;;;18.60;71.80;;;;;;5002513;28;20049;-69
2024/01/15 03:04:11;;;;;;;13.70;9.70;;;18.60;71.80;;;;;;5010258;28;20084;-69
2024/01/15 03:06:37;;;;;;;14.82;9.25;;;18.60;71.80;;;;;;5038676;23;20057;-65
2024/01/15 03:09:03;;;;;;;13.50;9.52;;;18.60;71.80;;;;;;5029543;28;20037;-65
2024/01/15 03:11:29;;;;;;;14.75;8.88;;;18.60;71.80;;;;;;5030237;28;20029;-65
2024/01/15 03:13:55;;;;;;;13.52;9.40;;;18.60;71.90;;;;;;5031347;28;20040;-65
2024/01/15 03:16:20;;;;;;;12.15;8.77;;;18.60;71.90;;;;;;5030954;28;20209;-66
2024/01/15 03:18:46;;;;;;;10.50;8.10;;;18.60;71.90;;;;;;5031305;28;20052;-67
2024/01/15 03:21:11;;;;;;;11.98;9.30;;;18.60;71.90;;;;;;5029220;28;20498;-67
2024/01/15 03:23:37;;;;;;;11.15;8.80;;;18.60;71.80;;;;;;5029279;28;20387;-68
2024/01/15 03:26:03;;;;;;;10.73;8.25;;;18.60;71.80;;;;;;5031128;28;20029;-68
2024/01/15 03:28:30;;;;;;;11.40;8.48;;;18.60;71.80;;;;;;5031177;28;20423;-65
2024/01/15 03:30:56;;;;;;;10.20;8.27;;;18.60;71.70;;;;;;5030412;28;20032;-65
2024/01/15 03:33:21;;;;;;;10.23;7.60;;;18.60;71.70;;;;;;5031160;28;20017;-66
2024/01/15 03:35:47;;;;;;;10.20;7.80;;;18.60;71.70;;;;;;5030955;28;20486;-68
2024/01/15 03:38:12;;;;;;;11.57;8.82;;;18.60;71.60;;;;;;5030920;28;20026;-68
2024/01/15 03:40:38;;;;;;;13.68;8.18;;;18.60;71.70;;;;;;5028762;28;20060;-68
2024/01/15 03:43:04;;;;;;;10.15;7.32;;;18.60;71.70;;;;;;5030976;28;20486;-69
2024/01/15 03:45:29;;;;;;;16.65;7.70;;;18.60;71.70;;;;;;5030666;28;20025;-70
2024/01/15 03:47:55;;;;;;;7.93;6.75;;;18.60;71.70;;;;;;5030764;28;20029;-68
2024/01/15 03:50:20;;;;;;;8.65;6.60;;;18.60;71.70;;;;;;5030045;28;20029;-69
2024/01/15 03:52:58;;;;;;;16.65;6.95;;;18.60;71.70;;;;;;5031284;28;20128;-69
2024/01/15 03:55:24;;;;;;;9.30;7.07;;;18.60;71.70;;;;;;5031474;28;20033;-69
2024/01/15 03:57:49;;;;;;;9.65;6.40;;;18.60;71.70;;;;;;5031423;28;20173;-66
2024/01/15 04:00:17;;;;;;;8.25;6.22;;;18.60;71.70;;;;;;5030305;28;20013;-66
2024/01/15 04:02:44;;;;;;;8.85;6.47;;;18.60;71.70;;;;;;5032868;28;20091;-66
2024/01/15 04:05:09;;;;;;;9.05;6.78;;;18.60;71.70;;;;;;5036157;28;20026;-67
2024/01/15 04:07:35;;;;;;;9.20;6.20;;;18.50;71.70;;;;;;5037418;28;20048;-67
2024/01/15 04:10:01;;;;;;;8.30;5.55;;;18.60;71.70;;;;;;5029878;28;20506;-67
2024/01/15 04:12:26;;;;;;;8.18;6.40;;;18.50;71.70;;;;;;5030613;28;20151;-67
2024/01/15 04:14:52;;;;;;;6.35;5.18;;;18.60;71.70;;;;;;5030084;28;20380;-66
2024/01/15 04:17:17;;;;;;;7.50;5.88;;;18.60;71.70;;;;;;5030620;28;20025;-66
2024/01/15 04:19:47;;;;;;;7.10;5.40;;;18.50;71.70;;;;;;5029877;28;20490;-66
2024/01/15 04:22:13;;;;;;;9.32;5.10;;;18.50;71.70;;;;;;5030532;28;20033;-67
2024/01/15 04:24:39;;;;;;;6.32;5.13;;;18.50;71.70;;;;;;5030443;28;20053;-66
2024/01/15 04:27:05;;;;;;;10.13;5.50;;;18.60;71.80;;;;;;5030382;28;20029;-67
2024/01/15 04:29:31;;;;;;;11.13;5.13;;;18.50;71.70;;;;;;5030154;28;20033;-67
2024/01/15 04:31:56;;;;;;;9.35;5.68;;;18.60;72.00;;;;;;5029892;28;20076;-67
2024/01/15 04:34:22;;;;;;;8.57;5.47;;;18.60;71.90;;;;;;5030304;28;20445;-67
2024/01/15 04:36:48;;;;;;;15.65;5.40;;;18.60;71.90;;;;;;5030356;28;20017;-67
2024/01/15 04:39:13;;;;;;;7.60;4.97;;;18.60;72.00;;;;;;5030315;28;20395;-67
2024/01/15 04:41:39;;;;;;;10.60;4.88;;;18.60;71.90;;;;;;5029616;28;20034;-67
2024/01/15 04:44:05;;;;;;;4.50;3.88;;;18.60;71.70;;;;;;5030106;28;20509;-68
2024/01/15 04:46:30;;;;;;;7.50;5.30;;;18.70;71.70;;;;;;5030394;28;20523;-67
2024/01/15 04:48:56;;;;;;;8.07;4.70;;;18.60;71.60;;;;;;5030379;28;20487;-66
2024/01/15 04:51:22;;;;;;;6.28;4.25;;;18.60;71.70;;;;;;5029651;28;20026;-66
2024/01/15 04:53:47;;;;;;;10.70;4.95;;;18.60;71.60;;;;;;5030164;28;20033;-67
2024/01/15 04:56:13;;;;;;;7.70;4.65;;;18.60;71.60;;;;;;5030249;28;20025;-66
2024/01/15 04:58:38;;;;;;;6.30;4.63;;;18.60;71.60;;;;;;5030076;28;20048;-66
2024/01/15 05:01:04;;;;;;;8.35;4.65;;;18.70;71.60;;;;;;5029481;28;20108;-66
2024/01/15 05:03:30;;;;;;;4.30;3.72;;;18.60;71.60;;;;;;5030104;28;20025;-67
2024/01/15 05:05:56;;;;;;;5.50;3.92;;;18.60;71.70;;;;;;5029965;28;20045;-67
2024/01/15 05:08:21;;;;;;;5.88;4.18;;;18.60;71.60;;;;;;5030044;28;20033;-65
2024/01/15 05:10:47;;;;;;;5.40;4.00;;;18.60;71.60;;;;;;5029424;28;20025;-67
2024/01/15 05:13:13;;;;;;;5.95;4.05;;;18.60;71.60;;;;;;5029992;28;20151;-66
2024/01/15 05:15:39;;;;;;;5.88;4.28;;;18.60;71.60;;;;;;5029285;28;20064;-65
2024/01/15 05:18:05;;;;;;;5.88;4.25;;;18.60;71.60;;;;;;5032686;28;20030;-67
2024/01/15 05:20:31;;;;;;;4.65;4.00;;;18.60;71.70;;;;;;5032678;28;20018;-67
2024/01/15 05:22:56;;;;;;;5.95;3.63;;;18.60;71.70;;;;;;5032154;28;20018;-66
2024/01/15 05:25:22;;;;;;;5.53;3.97;;;18.60;71.60;;;;;;5033309;28;20037;-67
2024/01/15 05:27:48;;;;;;;4.60;3.60;;;18.60;71.80;;;;;;5033259;28;20072;-68
2024/01/15 05:30:14;;;;;;;5.28;4.15;;;18.60;71.70;;;;;;5032517;28;20570;-69
2024/01/15 05:32:40;;;;;;;5.63;4.03;;;18.60;71.70;;;;;;5033463;28;20032;-69
2024/01/15 05:35:06;;;;;;;5.38;3.67;;;18.60;71.70;;;;;;5033238;28;20056;-66
2024/01/15 05:37:31;;;;;;;19.13;3.80;;;18.60;71.70;;;;;;5033093;28;20045;-66
2024/01/15 05:39:57;;;;;;;4.35;3.42;;;18.60;71.80;;;;;;5032482;28;20029;-67
2024/01/15 05:42:23;;;;;;;4.68;3.45;;;18.60;71.80;;;;;;5023739;28;20045;-67
2024/01/15 05:44:48;;;;;;;5.28;3.40;;;18.50;71.80;;;;;;5026079;28;20408;-67
2024/01/15 05:47:14;;;;;;;5.40;3.58;;;18.50;71.80;;;;;;5033077;28;20022;-67
2024/01/15 05:49:40;;;;;;;4.97;3.67;;;18.60;71.70;;;;;;5032310;28;20021;-63
2024/01/15 05:52:06;;;;;;;5.93;3.00;;;18.60;71.70;;;;;;5032826;28;20450;-66
2024/01/15 05:54:32;;;;;;;4.38;3.53;;;18.50;71.70;;;;;;5032530;28;20030;-65
2024/01/15 05:56:57;;;;;;;4.13;3.40;;;18.50;71.70;;;;;;5032462;28;20032;-68
2024/01/15 05:59:23;;;;;;;3.30;3.00;;;18.50;71.60;;;;;;5032526;28;20045;-67
2024/01/15 06:01:48;;;;;;;6.10;3.15;;;18.50;71.60;;;;;;5032044;28;20033;-64
2024/01/15 06:04:14;;;;;;;3.10;2.80;;;18.50;71.60;;;;;;5027881;28;20045;-68
2024/01/15 06:06:40;;;;;;;3.70;3.20;;;18.50;71.60;;;;;;5032040;28;20030;-67
2024/01/15 06:09:05;;;;;;;6.57;3.13;;;18.60;71.80;;;;;;5032538;28;20025;-68
2024/01/15 06:11:34;;;;;;;3.50;2.75;;;18.50;72.00;;;;;;5031516;28;20037;-69
2024/01/15 06:14:00;;;;;;;7.88;3.50;;;18.50;72.00;;;;;;5032210;28;20026;-67
2024/01/15 06:16:26;;;;;;;4.90;3.60;;;18.50;72.00;;;;;;5031648;28;20013;-67
2024/01/15 06:18:52;;;;;;;4.47;3.20;;;18.60;72.00;;;;;;5032432;28;20025;-67
2024/01/15 06:21:17;;;;;;;3.55;3.08;;;18.60;72.10;;;;;;5031634;28;20018;-66
2024/01/15 06:23:43;;;;;;;7.32;3.00;;;18.50;72.10;;;;;;5032313;28;20100;-66
2024/01/15 06:26:11;;;;;;;8.02;3.15;;;18.60;72.20;;;;;;5016815;28;20445;-66
2024/01/15 06:28:36;;;;;;;9.68;3.78;;;18.60;72.50;;;;;;5030593;28;20391;-72
2024/01/15 06:31:02;;;;;;;8.90;3.67;;;18.60;73.30;;;;;;5031723;28;20018;-70
2024/01/15 06:33:27;;;;;;;10.93;5.32;;;18.60;73.00;;;;;;5032165;28;20028;-70
2024/01/15 06:35:56;;;;;;;18.40;4.35;;;18.60;73.50;;;;;;5031681;28;20386;-68
2024/01/15 06:38:23;;;;;;;19.85;5.00;;;18.70;73.50;;;;;;5031789;28;20491;-67
2024/01/15 06:40:48;;;;;;;14.18;4.60;;;18.70;73.90;;;;;;5031332;28;20029;-68
2024/01/15 06:43:15;;;;;;;10.15;4.15;;;18.70;74.00;;;;;;5031932;28;20017;-67
2024/01/15 06:45:41;;;;;;;9.05;4.55;;;18.70;74.10;;;;;;5031754;28;20021;-68
2024/01/15 06:48:09;;;;;;;13.98;4.65;;;18.60;74.00;;;;;;5030380;28;20124;-67
2024/01/15 06:50:35;;;;;;;22.83;4.75;;;18.70;74.00;;;;;;5031131;28;20058;-67
2024/01/15 06:53:01;;;;;;;9.73;3.78;;;18.70;73.90;;;;;;5031781;28;20029;-67
2024/01/15 06:55:27;;;;;;;10.82;4.28;;;18.70;73.80;;;;;;5031544;28;20497;-67
2024/01/15 06:57:53;;;;;;;18.17;4.80;;;18.60;73.70;;;;;;5031602;28;20028;-67
2024/01/15 07:00:19;;;;;;;13.75;3.80;;;18.60;73.50;;;;;;5030706;28;20116;-67
2024/01/15 07:02:45;;;;;;;9.35;4.05;;;18.60;73.50;;;;;;5031533;28;20104;-67
2024/01/15 07:05:11;;;;;;;18.42;3.90;;;18.60;73.40;;;;;;5030964;28;20025;-67
2024/01/15 07:07:43;;;;;;;9.75;4.03;;;18.60;73.30;;;;;;5031385;28;20147;-68
2024/01/15 07:10:11;;;;;;;10.02;4.82;;;18.60;73.30;;;;;;5030476;28;20028;-67
2024/01/15 07:12:43;;;;;;;16.92;4.00;;;18.50;73.40;;;;;;5028606;28;20438;-67
2024/01/15 07:15:09;;;;;;;11.25;4.30;;;18.60;73.30;;;;;;5010326;28;20101;-67
2024/01/15 07:17:35;;;;;;;12.07;3.38;;;18.50;73.20;;;;;;5011639;28;20097;-67
2024/01/15 07:20:01;;;;;;;6.00;3.45;;;18.50;73.00;;;;;;5010656;28;20037;-65
2024/01/15 07:22:27;;;;;;;10.35;3.70;;;18.50;72.90;;;;;;5010303;28;20049;-67
2024/01/15 07:24:53;;;;;;;6.63;3.10;;;18.50;72.80;;;;;;5010475;28;20495;-67
2024/01/15 07:27:19;;;;;;;4.25;2.75;;;18.50;72.80;;;;;;5011302;28;20105;-67
2024/01/15 07:29:45;;;;;;;7.35;3.08;;;18.50;72.70;;;;;;5011024;28;20393;-66
2024/01/15 07:32:11;;;;;;;7.03;3.03;;;18.50;72.70;;;;;;5011285;28;20065;-67
2024/01/15 07:34:37;;;;;;;5.40;2.95;;;18.50;72.70;;;;;;5011242;28;20655;-67
2024/01/15 07:37:03;;;;;;;8.30;2.50;;;18.50;72.60;;;;;;5011421;28;20391;-67
2024/01/15 07:39:30;;;;;;;4.63;2.00;;;18.50;72.60;;;;;;5011269;28;20821;-67
2024/01/15 07:41:56;;;;;;;4.68;2.67;;;18.50;72.60;;;;;;5011102;28;20064;-67
2024/01/15 07:44:21;;;;;;;4.07;2.35;;;18.50;72.50;;;;;;5011301;28;20034;-68
2024/01/15 07:46:47;;;;;;;6.82;2.72;;;18.50;72.50;;;;;;5010074;28;20030;-67
2024/01/15 07:49:13;;;;;;;4.93;2.33;;;18.40;72.40;;;;;;5011517;28;20113;-67
2024/01/15 07:51:40;;;;;;;3.53;2.38;;;18.40;72.40;;;;;;5010943;28;20053;-67
2024/01/15 07:54:09;;;;;;;4.43;2.20;;;18.40;72.40;;;;;;5011640;28;20036;-67
2024/01/15 07:56:57;;;;;;;4.60;1.90;;;18.40;72.30;;;;;;5012432;28;20018;-67
2024/01/15 07:59:23;;;;;;;4.93;2.15;;;18.40;72.30;;;;;;5012665;28;20105;-67
2024/01/15 08:01:51;;;;;;;5.55;2.50;;;18.40;72.30;;;;;;5014932;28;20483;-66
2024/01/15 08:04:17;;;;;;;6.60;1.70;;;18.40;72.20;;;;;;5012099;28;20087;-67
2024/01/15 08:06:43;;;;;;;3.95;2.13;;;18.40;72.20;;;;;;5011647;28;20116;-67
2024/01/15 08:09:09;;;;;;;3.53;1.80;;;18.40;72.20;;;;;;5012087;28;20026;-67
2024/01/15 08:11:41;;;;;;;2.30;1.60;;;18.40;72.20;;;;;;5010795;28;20042;-66
2024/01/15 08:14:07;;;;;;;3.97;1.98;;;18.40;72.20;;;;;;5011757;28;20083;-67
2024/01/15 08:16:33;;;;;;;4.45;2.03;;;18.40;72.10;;;;;;5010777;28;20497;-67
2024/01/15 08:18:58;;;;;;;4.35;1.90;;;18.40;72.10;;;;;;5011371;28;20049;-68
2024/01/15 08:21:24;;;;;;;5.43;1.40;;;18.40;72.00;;;;;;5010337;28;20033;-68
2024/01/15 08:23:50;;;;;;;7.75;1.70;;;18.40;72.00;;;;;;5010719;28;20148;-66
2024/01/15 08:26:15;;;;;;;1.42;1.33;;;18.40;72.00;;;;;;5011146;28;20037;-65
2024/01/15 08:28:41;;;;;;;3.15;1.40;;;18.40;72.00;;;;;;5010989;28;20028;-65
2024/01/15 08:31:07;;;;;;;1.73;1.02;;;18.40;72.00;;;;;;5010014;28;20117;-65
2024/01/15 08:33:32;;;;;;;4.63;1.50;;;18.40;72.00;;;;;;5010743;28;20041;-65
2024/01/15 08:35:58;;;;;;;4.65;1.60;;;18.40;71.90;;;;;;5010777;28;20084;-64
2024/01/15 08:38:25;;;;;;;3.08;1.35;;;18.40;71.90;;;;;;5010927;28;20033;-64
2024/01/15 08:40:53;;;;;;;2.10;1.30;;;18.40;71.90;;;;;;5010173;28;20514;-65
2024/01/15 08:43:18;;;;;;;2.97;1.52;;;18.40;71.90;;;;;;5009601;28;20030;-68
2024/01/15 08:45:45;;;;;;;1.35;1.20;;;18.30;71.90;;;;;;5010799;28;20024;-67
2024/01/15 08:48:10;;;;;;;4.25;1.55;;;18.40;71.90;;;;;;5010565;28;20018;-65
2024/01/15 08:50:36;;;;;;;2.78;1.30;;;18.40;71.90;;;;;;5010124;28;20105;-63
2024/01/15 08:53:02;;;;;;;1.23;0.95;;;18.40;71.90;;;;;;5013630;28;20041;-67
2024/01/15 08:55:27;;;;;;;2.85;1.23;;;18.40;71.90;;;;;;5014566;28;20029;-68
2024/01/15 08:57:53;;;;;;;2.78;1.20;;;18.30;71.80;;;;;;5014182;28;20044;-67
2024/01/15 09:00:18;;;;;;;3.50;1.30;;;18.30;71.80;;;;;;5013690;28;20032;-68
2024/01/15 09:02:44;;;;;;;2.10;1.05;;;18.30;71.80;;;;;;5014164;28;20050;-67
2024/01/15 09:05:10;;;;;;;1.48;1.05;;;18.40;71.80;;;;;;5014256;28;20029;-67
2024/01/15 09:07:36;;;;;;;1.50;1.02;;;18.30;71.80;;;;;;5014870;28;20062;-68
2024/01/15 09:10:01;;;;;;;1.63;0.98;;;18.30;71.80;;;;;;5013565;28;20112;-68
2024/01/15 09:12:28;;;;;;;1.67;0.88;;;18.30;71.80;;;;;;5014110;28;20112;-68
2024/01/15 09:14:53;;;;;;;2.10;1.00;;;18.30;71.80;;;;;;5012944;28;20025;-68
2024/01/15 09:17:25;;;;;;;2.58;0.90;;;18.30;71.80;;;;;;5014020;28;20661;-68
2024/01/15 09:19:51;;;;;;;2.15;0.75;;;18.40;71.80;;;;;;5013502;28;20071;-68
2024/01/15 09:22:19;;;;;;;2.22;1.05;;;18.30;71.90;;;;;;5014175;28;20022;-65
2024/01/15 09:24:46;;;;;;;1.20;0.80;;;18.40;71.90;;;;;;5013840;28;20388;-65
2024/01/15 09:27:11;;;;;;;2.25;0.88;;;18.40;71.90;;;;;;5013773;28;20033;-65
2024/01/15 09:29:39;;;;;;;2.13;0.93;;;18.40;71.80;;;;;;5013660;28;20506;-65
2024/01/15 09:32:07;;;;;;;1.00;0.60;;;18.40;71.80;;;;;;5013913;28;20426;-65
2024/01/15 09:34:33;;;;;;;2.15;0.80;;;18.40;71.80;;;;;;5013602;28;20479;-66
2024/01/15 09:36:59;;;;;;;0.88;0.52;;;18.40;71.80;;;;;;5013564;28;20030;-66
2024/01/15 09:39:26;;;;;;;1.88;0.82;;;18.40;71.80;;;;;;5013464;28;20044;-65
2024/01/15 09:41:52;;;;;;;0.50;0.40;;;18.40;71.70;;;;;;5012899;28;20084;-66
2024/01/15 09:44:21;;;;;;;3.05;0.80;;;18.40;71.70;;;;;;5013925;28;20033;-66
2024/01/15 09:46:50;;;;;;;1.83;1.10;;;18.40;71.60;;;;;;5013408;28;20059;-66
2024/01/15 09:49:19;;;;;;;0.90;0.77;;;18.40;71.60;;;;;;5013404;28;20037;-64
2024/01/15 09:51:45;;;;;;;1.17;0.50;;;18.40;71.60;;;;;;5012964;28;20041;-67
2024/01/15 09:54:13;;;;;;;0.40;0.35;;;18.40;71.70;;;;;;5013447;28;20030;-66
2024/01/15 09:56:39;;;;;;;1.52;0.70;;;18.40;71.60;;;;;;5013033;28;20542;-67
2024/01/15 09:59:06;;;;;;;0.52;0.50;;;18.40;71.60;;;;;;5013410;28;20026;-66
2024/01/15 10:01:32;;;;;;;1.17;0.65;;;18.30;71.60;;;;;;5012610;28;20079;-66
2024/01/15 10:04:01;;;;;;;1.20;0.85;;;18.40;71.60;;;;;;5012954;28;20506;-66
2024/01/15 10:06:28;;;;;;;0.80;0.50;;;18.40;71.60;;;;;;5013034;28;20025;-66
2024/01/15 10:08:56;;;;;;;0.98;0.88;;;18.40;71.50;;;;;;5012991;28;20022;-66
2024/01/15 10:11:21;;;;;;;0.98;0.65;;;18.30;71.50;;;;;;5012468;28;20030;-66
2024/01/15 10:13:50;;;;;;;0.43;0.43;;;18.30;71.50;;;;;;5012830;28;20025;-66
2024/01/15 10:16:16;;;;;;;0.65;0.30;;;18.30;71.50;;;;;;5012853;28;20432;-65
2024/01/15 10:18:42;;;;;;;1.30;0.70;;;18.30;71.60;;;;;;5012978;28;20080;-66
2024/01/15 10:21:08;;;;;;;0.80;0.55;;;18.40;71.50;;;;;;5012260;28;20454;-66
2024/01/15 10:23:33;;;;;;;1.10;0.63;;;18.30;71.50;;;;;;5012701;28;20030;-66
2024/01/15 10:26:00;;;;;;;0.57;0.52;;;18.40;71.50;;;;;;5012565;28;20088;-67
2024/01/15 10:28:30;;;;;;;0.40;0.30;;;18.30;71.50;;;;;;5012854;28;20487;-67
2024/01/15 10:30:58;;;;;;;2.97;1.45;;;18.30;71.50;;;;;;5011919;28;20030;-67
2024/01/15 10:33:27;;;;;;;3.13;1.73;;;18.30;71.60;;;;;;5012687;28;20026;-67
2024/01/15 10:35:58;;;;;;;1.58;1.35;;;18.30;71.60;;;;;;5012500;28;20030;-66
2024/01/15 10:38:24;;;;;;;3.05;1.52;;;18.30;71.40;;;;;;5012643;28;20033;-67
2024/01/15 10:40:54;;;;;;;4.07;1.50;;;18.40;71.30;;;;;;5011774;28;20503;-67
2024/01/15 10:43:20;;;;;;;1.77;1.08;;;18.40;71.30;;;;;;5012636;28;20065;-67
2024/01/15 10:45:47;;;;;;;6.68;1.73;;;18.40;71.50;;;;;;5012455;28;20104;-70
2024/01/15 10:48:13;;;;;;;7.57;2.20;;;18.40;71.80;;;;;;5012331;28;20368;-70
2024/01/15 10:50:39;;;;;;;7.53;2.05;;;18.40;72.20;;;;;;5011490;28;20116;-69
2024/01/15 10:53:05;;;;;;;4.32;1.50;;;18.40;72.20;;;;;;5012269;28;20101;-70
2024/01/15 10:55:33;;;;;;;5.28;1.65;;;18.40;72.20;;;;;;5012259;28;20026;-67
2024/01/15 10:58:00;;;;;;;2.35;1.50;;;18.50;72.10;;;;;;5012208;28;20029;-68
2024/01/15 11:00:26;;;;;;;4.38;1.90;;;18.50;72.10;;;;;;5011554;28;20033;-66
2024/01/15 11:02:55;;;;;;;9.38;1.58;;;18.50;72.20;;;;;;5012151;28;20137;-66
2024/01/15 11:05:22;;;;;;;3.70;1.30;;;18.50;72.10;;;;;;5012006;28;20557;-67
2024/01/15 11:07:48;;;;;;;6.82;1.48;;;18.50;72.00;;;;;;5011795;28;20038;-66
2024/01/15 11:10:49;;;;;;;6.70;1.70;;;18.50;72.10;;;;;;5011300;28;20407;-68
2024/01/15 11:13:23;;;;;;;5.33;1.43;;;18.50;72.00;;;;;;5011921;28;20038;-68
2024/01/15 11:15:54;;;;;;;6.32;1.45;;;18.60;71.90;;;;;;5011294;28;20277;-65
2024/01/15 11:18:23;;;;;;;5.95;1.10;;;18.60;72.00;;;;;;5012128;28;20030;-64
2024/01/15 11:21:07;;;;;;;3.53;1.15;;;18.60;72.10;;;;;;5009796;28;20022;-66
2024/01/15 11:23:49;;;;;;;7.85;1.95;;;18.70;71.90;;;;;;5011767;28;20022;-67
2024/01/15 11:26:46;;;;;;;3.08;1.58;;;18.60;71.60;;;;;;5011588;28;21214;-66
2024/01/15 11:29:26;;;;;;;5.53;1.90;;;18.60;71.70;;;;;;5011365;28;20117;-66
2024/01/15 11:31:55;;;;;;;3.67;1.23;;;18.60;71.90;;;;;;5011001;28;20064;-66
2024/01/15 11:34:21;;;;;;;2.33;1.25;;;18.60;71.80;;;;;;5011474;28;20109;-63
2024/01/15 11:36:52;;;;;;;10.73;1.95;;;18.50;71.90;;;;;;5011579;28;20647;-66
2024/01/15 11:39:24;;;;;;;;;;;18.60;71.90;;;;;;5011981;28;20407;-64
2024/01/15 11:41:50;;;;;;;5.82;2.05;;;18.50;71.90;;;;;;5013173;28;19910;-65
2024/01/15 11:44:15;;;;;;;4.25;1.48;;;18.50;71.90;;;;;;5007708;28;20064;-67
2024/01/15 11:47:06;;;;;;;5.78;1.35;;;18.50;72.10;;;;;;5011388;28;20040;-64
2024/01/15 11:49:56;;;;;;;7.25;1.85;;;18.50;72.20;;;;;;5011253;28;20407;-67
2024/01/15 11:52:22;;;;;;;5.03;1.55;;;18.50;72.40;;;;;;5011503;28;20121;-67
2024/01/15 11:55:16;;;;;;;9.48;2.03;;;18.50;72.40;;;;;;5011361;28;20032;-68
2024/01/15 11:57:52;;;;;;;3.50;1.17;;;18.50;72.60;;;;;;5011537;28;20030;-68
2024/01/15 12:00:18;;;;;;;7.90;1.80;;;18.50;72.70;;;;;;5010930;28;20408;-68
2024/01/15 12:02:46;;;;;;;7.22;1.92;;;18.50;72.70;;;;;;5011831;28;20018;-68
2024/01/15 12:05:14;;;;;;;8.45;1.75;;;18.60;73.00;;;;;;5010994;28;20037;-69
2024/01/15 12:07:40;;;;;;;10.30;2.85;;;18.60;73.30;;;;;;5014120;28;20038;-68
2024/01/15 12:10:13;;;;;;;9.55;2.55;;;18.60;73.80;;;;;;5001759;28;20037;-66
2024/01/15 12:13:05;;;;;;;7.15;2.28;;;18.60;74.10;;;;;;5004844;28;20064;-66
2024/01/15 12:15:31;;;;;;;;;;;18.60;74.50;;;;;;5001484;28;20029;-64
2024/01/15 12:18:01;;;;;;;36.72;3.58;;;18.60;74.60;;;;;;4992291;28;19985;-64
2024/01/15 12:20:28;;;;;;;16.88;2.38;;;18.60;74.10;;;;;;4992095;28;20022;-67
2024/01/15 12:22:57;;;;;;;8.60;1.77;;;18.70;74.10;;;;;;4991281;28;20085;-67
2024/01/15 12:25:23;;;;;;;8.43;2.10;;;18.70;74.20;;;;;;4991843;28;20031;-68
2024/01/15 12:27:49;;;;;;;6.25;1.70;;;18.70;74.00;;;;;;4995538;28;20053;-69
2024/01/15 12:30:15;;;;;;;7.40;1.58;;;18.80;73.90;;;;;;4994885;28;20026;-68
2024/01/15 12:32:41;;;;;;;18.95;2.83;;;18.80;73.80;;;;;;5007249;28;20081;-67
2024/01/15 12:35:08;;;;;;;5.68;1.70;;;18.80;73.90;;;;;;5014834;28;20022;-68
2024/01/15 12:37:36;;;;;;;15.20;1.98;;;18.90;74.00;;;;;;5014891;28;20017;-68
2024/01/15 12:40:04;;;;;;;8.48;2.00;;;18.90;73.80;;;;;;5014146;28;20069;-68